createdAt,value
2022-08-07T00:02:36.165Z,99.54
2022-08-07T00:04:59.331Z,99.14
2022-08-07T00:07:28.195Z,98.71
2022-08-07T00:10:26.982Z,99.03
2022-08-07T00:13:01.765Z,98.81
2022-08-07T00:15:36.148Z,98.67
2022-08-07T00:18:19.810Z,98.50
2022-08-07T00:20:52.038Z,98.11
2022-08-07T00:23:21.122Z,97.97
2022-08-07T00:25:52.415Z,98.20
2022-08-07T00:28:33.345Z,97.79
2022-08-07T00:31:04.328Z,97.44
2022-08-07T00:33:35.757Z,97.32
2022-08-07T00:36:06.554Z,97.26
2022-08-07T00:38:37.036Z,97.55
2022-08-07T00:41:10.000Z,97.85
2022-08-07T00:44:00.754Z,97.86
2022-08-07T00:46:33.186Z,97.84
2022-08-07T00:49:03.559Z,97.41
2022-08-07T00:51:57.538Z,97.41
2022-08-07T00:54:22.505Z,97.55
2022-08-07T00:56:51.420Z,97.62
2022-08-07T00:59:35.204Z,98.08
2022-08-07T01:02:14.125Z,98.75
2022-08-07T01:04:58.406Z,98.77
2022-08-07T01:07:29.642Z,98.73
2022-08-07T01:10:06.373Z,98.80
2022-08-07T01:12:53.429Z,98.83
2022-08-07T01:15:36.112Z,98.51
2022-08-07T01:18:16.864Z,98.29
2022-08-07T01:20:58.453Z,98.81
2022-08-07T01:23:38.409Z,99.28
2022-08-07T01:26:12.392Z,99.04
2022-08-07T01:28:48.769Z,98.95
2022-08-07T01:31:42.361Z,98.89
2022-08-07T01:34:14.919Z,98.67
2022-08-07T01:36:52.388Z,98.73
2022-08-07T01:39:41.101Z,98.83
2022-08-07T01:42:39.658Z,98.84
2022-08-07T01:45:22.737Z,99.06
2022-08-07T01:48:21.722Z,99.54
2022-08-07T01:50:47.990Z,99.39
2022-08-07T01:53:20.862Z,99.31
2022-08-07T01:55:57.769Z,99.90
2022-08-07T01:58:33.341Z,99.74
2022-08-07T02:01:10.272Z,99.32
2022-08-07T02:04:00.491Z,99.25
2022-08-07T02:06:32.860Z,99.20
2022-08-07T02:09:07.460Z,99.94
2022-08-07T02:12:03.482Z,100.00
2022-08-07T02:14:35.513Z,100.00
2022-08-07T02:17:06.387Z,100.00
2022-08-07T02:20:05.790Z,100.00
2022-08-07T02:22:25.937Z,100.00
2022-08-07T02:24:55.640Z,100.00
2022-08-07T02:27:25.510Z,99.85
2022-08-07T02:29:55.146Z,99.64
2022-08-07T02:32:29.934Z,100.00
2022-08-07T02:35:00.991Z,100.00
2022-08-07T02:37:34.265Z,100.00
2022-08-07T02:40:29.818Z,99.78
2022-08-07T02:42:59.195Z,99.93
2022-08-07T02:45:58.251Z,100.00
2022-08-07T02:48:17.588Z,100.00
2022-08-07T02:51:28.859Z,100.00
2022-08-07T02:54:02.794Z,99.68
2022-08-07T02:56:32.937Z,98.84
2022-08-07T02:59:06.253Z,97.99
2022-08-07T03:01:40.376Z,97.48
2022-08-07T03:04:14.113Z,96.77
2022-08-07T03:06:48.107Z,96.37
2022-08-07T03:09:42.405Z,95.84
2022-08-07T03:12:22.211Z,95.21
2022-08-07T03:15:08.145Z,93.79
2022-08-07T03:17:53.508Z,93.21
2022-08-07T03:20:25.379Z,92.32
2022-08-07T03:22:54.061Z,91.40
2022-08-07T03:25:25.800Z,90.36
2022-08-07T03:28:09.494Z,89.84
2022-08-07T03:31:13.727Z,87.97
2022-08-07T03:33:43.238Z,87.34
2022-08-07T03:36:15.249Z,86.14
2022-08-07T03:38:47.032Z,83.65
2022-08-07T03:41:17.872Z,77.32
2022-08-07T03:43:56.738Z,71.32
2022-08-07T03:46:27.328Z,67.75
2022-08-07T03:49:07.807Z,63.61
2022-08-07T03:51:47.418Z,61.84
2022-08-07T03:54:36.324Z,59.47
2022-08-07T03:58:34.023Z,57.38
2022-08-07T04:00:05.925Z,56.68
2022-08-07T04:02:47.167Z,55.34
2022-08-07T04:05:39.879Z,53.19
2022-08-07T04:08:20.930Z,55.46
2022-08-07T04:10:54.074Z,55.26
2022-08-07T04:14:33.032Z,52.99
2022-08-07T04:16:32.669Z,52.09
2022-08-07T04:19:12.829Z,51.79
2022-08-07T04:21:59.273Z,51.44
2022-08-07T04:24:42.390Z,50.64
2022-08-07T04:27:20.763Z,51.15
2022-08-07T04:30:04.478Z,50.80
2022-08-07T04:32:49.059Z,49.62
2022-08-07T04:35:35.148Z,48.74
2022-08-07T04:38:13.334Z,48.51
2022-08-07T04:40:51.681Z,47.62
2022-08-07T04:44:13.055Z,45.82
2022-08-07T04:47:04.349Z,46.01
2022-08-07T04:50:04.455Z,45.34
2022-08-07T04:52:54.609Z,44.93
2022-08-07T04:58:11.902Z,44.81
2022-08-07T04:59:09.182Z,45.24
2022-08-07T05:02:05.299Z,44.54
2022-08-07T05:05:02.872Z,43.75
2022-08-07T05:07:54.606Z,44.57
2022-08-07T05:10:32.142Z,44.11
2022-08-07T05:14:53.976Z,44.45
2022-08-07T05:16:26.131Z,44.07
2022-08-07T05:19:00.357Z,42.75
2022-08-07T05:22:00.106Z,41.71
2022-08-07T05:24:30.397Z,43.75
2022-08-07T05:27:14.530Z,42.13
2022-08-07T05:30:03.726Z,43.04
2022-08-07T05:32:32.883Z,42.85
2022-08-07T05:35:03.428Z,41.39
2022-08-07T05:37:37.773Z,42.36
2022-08-07T05:40:18.796Z,43.73
2022-08-07T05:42:56.342Z,42.46
2022-08-07T05:45:46.490Z,43.32
2022-08-07T05:48:16.876Z,42.73
2022-08-07T05:50:47.362Z,42.80
2022-08-07T05:54:12.225Z,44.44
2022-08-07T05:56:10.403Z,46.02
2022-08-07T05:58:52.488Z,46.30
2022-08-07T06:01:25.925Z,46.14
2022-08-07T06:03:58.907Z,47.99
2022-08-07T06:06:38.444Z,48.27
2022-08-07T06:09:16.554Z,48.51
2022-08-07T06:11:49.699Z,49.17
2022-08-07T06:14:28.521Z,47.51
2022-08-07T06:17:01.637Z,48.36
2022-08-07T06:19:57.836Z,48.75
2022-08-07T06:22:28.561Z,49.52
2022-08-07T06:25:10.403Z,50.25
2022-08-07T06:28:00.545Z,49.44
2022-08-07T06:30:37.488Z,50.37
2022-08-07T06:33:18.455Z,50.77
2022-08-07T06:36:12.314Z,50.21
2022-08-07T06:38:51.262Z,48.72
2022-08-07T06:42:00.658Z,49.76
2022-08-07T06:44:41.335Z,48.55
2022-08-07T06:47:15.389Z,49.43
2022-08-07T06:49:51.901Z,48.75
2022-08-07T06:52:36.021Z,48.27
2022-08-07T06:55:53.954Z,49.62
2022-08-07T06:58:17.437Z,45.85
2022-08-07T07:01:00.385Z,46.25
2022-08-07T07:03:48.708Z,45.91
2022-08-07T07:06:26.529Z,46.96
2022-08-07T07:08:58.142Z,47.93
2022-08-07T07:12:08.579Z,49.32
2022-08-07T07:14:15.816Z,47.51
2022-08-07T07:16:50.672Z,46.11
2022-08-07T07:19:55.923Z,45.02
2022-08-07T07:22:36.622Z,47.00
2022-08-07T07:26:30.758Z,46.92
2022-08-07T07:28:41.923Z,44.96
2022-08-07T07:31:17.314Z,42.62
2022-08-07T07:33:56.958Z,43.22
2022-08-07T07:36:32.410Z,43.41
2022-08-07T07:39:01.585Z,43.24
2022-08-07T07:41:30.906Z,41.56
2022-08-07T07:44:26.107Z,42.67
2022-08-07T07:47:04.336Z,42.91
2022-08-07T07:50:34.944Z,42.01
2022-08-07T07:52:32.069Z,45.42
2022-08-07T07:55:00.085Z,42.89
2022-08-07T07:57:43.989Z,42.56
2022-08-07T08:00:21.146Z,42.88
2022-08-07T08:03:08.439Z,40.02
2022-08-07T08:05:53.817Z,42.03
2022-08-07T08:08:35.448Z,41.62
2022-08-07T08:11:09.008Z,42.89
2022-08-07T08:13:54.729Z,41.92
2022-08-07T08:16:53.608Z,43.89
2022-08-07T08:20:15.982Z,38.88
2022-08-07T08:22:32.788Z,38.44
2022-08-07T08:25:42.296Z,39.09
2022-08-07T08:28:16.848Z,39.02
2022-08-07T08:30:59.536Z,37.89
2022-08-07T08:33:33.180Z,37.30
2022-08-07T08:36:02.167Z,38.31
2022-08-07T08:38:40.409Z,36.75
2022-08-07T08:41:56.921Z,36.99
2022-08-07T08:44:29.161Z,36.85
2022-08-07T08:47:13.571Z,38.12
2022-08-07T08:50:04.636Z,35.78
2022-08-07T08:53:05.515Z,34.85
2022-08-07T08:55:58.504Z,35.66
2022-08-07T08:58:56.536Z,35.33
2022-08-07T09:01:43.613Z,35.54
2022-08-07T09:04:26.064Z,33.80
2022-08-07T09:07:02.522Z,33.73
2022-08-07T09:09:36.724Z,34.72
2022-08-07T09:12:19.943Z,34.01
2022-08-07T09:16:22.203Z,32.08
2022-08-07T09:18:22.090Z,31.97
2022-08-07T09:21:06.464Z,32.35
2022-08-07T09:24:32.816Z,33.86
2022-08-07T09:26:47.951Z,33.56
2022-08-07T09:30:03.470Z,31.42
2022-08-07T09:32:58.001Z,31.88
2022-08-07T09:36:04.125Z,29.86
2022-08-07T09:38:54.967Z,31.69
2022-08-07T09:41:59.125Z,29.18
2022-08-07T09:44:58.498Z,29.64
2022-08-07T09:48:00.393Z,31.65
2022-08-07T09:50:46.935Z,30.58
2022-08-07T09:53:14.661Z,29.24
2022-08-07T09:56:05.143Z,30.87
2022-08-07T09:58:54.646Z,28.42
2022-08-07T10:01:51.739Z,28.40
2022-08-07T10:04:28.253Z,27.50
2022-08-07T10:07:31.638Z,28.85
2022-08-07T10:10:06.396Z,28.34
2022-08-07T10:13:10.966Z,28.75
2022-08-07T10:15:49.160Z,28.35
2022-08-07T10:18:56.700Z,28.37
2022-08-07T10:22:14.982Z,28.37
2022-08-07T10:24:49.811Z,27.61
2022-08-07T10:27:45.907Z,28.91
2022-08-07T10:30:25.040Z,26.67
2022-08-07T10:34:06.283Z,27.84
2022-08-07T10:36:29.721Z,28.17
2022-08-07T10:39:18.927Z,27.30
2022-08-07T10:42:21.307Z,27.08
2022-08-07T10:45:01.953Z,27.64
2022-08-07T10:47:51.624Z,28.65
2022-08-07T10:50:31.931Z,28.24
2022-08-07T10:53:10.894Z,28.30
2022-08-07T10:56:30.954Z,27.58
2022-08-07T10:59:11.076Z,28.08
2022-08-07T11:01:51.928Z,28.12
2022-08-07T11:04:40.233Z,28.21
2022-08-07T11:07:14.889Z,27.64
2022-08-07T11:10:07.589Z,27.93
2022-08-07T11:13:02.252Z,27.16
2022-08-07T11:15:34.538Z,27.33
2022-08-07T11:18:50.993Z,29.25
2022-08-07T11:21:19.456Z,28.03
2022-08-07T11:24:04.846Z,25.94
2022-08-07T11:26:50.506Z,28.47
2022-08-07T11:29:42.683Z,27.50
2022-08-07T11:32:15.514Z,27.50
2022-08-07T11:35:03.197Z,25.73
2022-08-07T11:37:38.538Z,26.01
2022-08-07T11:40:59.969Z,27.02
2022-08-07T11:43:54.690Z,27.13
2022-08-07T11:46:50.252Z,27.42
2022-08-07T11:50:18.664Z,26.23
2022-08-07T11:52:35.653Z,27.55
2022-08-07T11:55:12.994Z,26.70
2022-08-07T11:57:52.449Z,26.59
2022-08-07T12:00:53.649Z,25.71
2022-08-07T12:03:46.398Z,26.96
2022-08-07T12:06:37.879Z,25.64
2022-08-07T12:09:51.432Z,25.62
2022-08-07T12:12:22.538Z,26.09
2022-08-07T12:15:02.062Z,25.41
2022-08-07T12:17:58.548Z,25.84
2022-08-07T12:20:30.753Z,26.81
2022-08-07T12:23:15.096Z,25.92
2022-08-07T12:26:22.394Z,25.81
2022-08-07T12:29:03.925Z,27.55
2022-08-07T12:31:52.371Z,25.40
2022-08-07T12:34:25.894Z,26.67
2022-08-07T12:36:54.480Z,25.74
2022-08-07T12:39:44.434Z,25.26
2022-08-07T12:42:13.194Z,26.69
2022-08-07T12:44:42.982Z,24.79
2022-08-07T12:47:30.785Z,24.89
2022-08-07T12:50:39.081Z,25.38
2022-08-07T12:53:18.797Z,24.07
2022-08-07T12:56:10.722Z,23.80
2022-08-07T12:58:43.020Z,24.05
2022-08-07T13:01:19.674Z,23.94
2022-08-07T13:04:32.652Z,23.77
2022-08-07T13:08:11.613Z,23.56
2022-08-07T13:10:29.342Z,23.06
2022-08-07T13:13:47.823Z,23.08
2022-08-07T13:16:11.121Z,22.67
2022-08-07T13:19:21.672Z,23.32
2022-08-07T13:22:12.677Z,22.78
2022-08-07T13:24:56.778Z,23.61
2022-08-07T13:27:33.247Z,23.08
2022-08-07T13:30:18.857Z,23.38
2022-08-07T13:32:53.056Z,22.39
2022-08-07T13:36:00.867Z,23.79
2022-08-07T13:38:45.593Z,23.60
2022-08-07T13:41:42.183Z,23.40
2022-08-07T13:44:13.025Z,22.96
2022-08-07T13:46:48.853Z,23.36
2022-08-07T13:50:35.354Z,23.90
2022-08-07T13:52:31.696Z,22.56
2022-08-07T13:54:58.130Z,23.60
2022-08-07T13:57:26.968Z,23.45
2022-08-07T14:00:10.350Z,23.44
2022-08-07T14:02:55.654Z,24.46
2022-08-07T14:05:23.733Z,23.12
2022-08-07T14:07:59.604Z,24.23
2022-08-07T14:10:41.743Z,23.32
2022-08-07T14:13:33.605Z,23.68
2022-08-07T14:16:06.341Z,24.11
2022-08-07T14:18:49.931Z,23.35
2022-08-07T14:22:02.345Z,23.37
2022-08-07T14:24:37.553Z,23.77
2022-08-07T14:28:09.538Z,23.15
2022-08-07T14:30:05.441Z,23.72
2022-08-07T14:32:43.173Z,23.46
2022-08-07T14:35:16.257Z,24.74
2022-08-07T14:38:06.053Z,23.58
2022-08-07T14:40:36.017Z,23.61
2022-08-07T14:43:57.357Z,24.01
2022-08-07T14:45:57.782Z,24.39
2022-08-07T14:48:33.080Z,24.10
2022-08-07T14:51:15.837Z,24.57
2022-08-07T14:54:03.649Z,23.45
2022-08-07T14:56:33.463Z,24.57
2022-08-07T14:59:13.853Z,24.24
2022-08-07T15:01:58.407Z,24.79
2022-08-07T15:04:28.812Z,24.35
2022-08-07T15:06:57.040Z,24.94
2022-08-07T15:10:00.001Z,24.78
2022-08-07T15:12:26.002Z,24.81
2022-08-07T15:15:17.350Z,25.74
2022-08-07T15:17:57.159Z,25.70
2022-08-07T15:20:33.865Z,25.54
2022-08-07T15:25:12.827Z,25.80
2022-08-07T15:26:20.860Z,25.75
2022-08-07T15:28:56.638Z,26.21
2022-08-07T15:32:01.217Z,26.59
2022-08-07T15:34:17.171Z,25.84
2022-08-07T15:37:03.706Z,26.11
2022-08-07T15:39:56.272Z,26.24
2022-08-07T15:42:43.933Z,26.94
2022-08-07T15:45:14.734Z,27.09
2022-08-07T15:53:51.621Z,27.15
2022-08-07T15:56:35.278Z,27.95
2022-08-07T15:59:16.327Z,28.22
2022-08-07T16:02:02.582Z,28.09
2022-08-07T16:04:32.162Z,29.10
2022-08-07T16:07:00.990Z,28.75
2022-08-07T16:09:42.336Z,29.72
2022-08-07T16:12:25.068Z,29.25
2022-08-07T16:15:03.306Z,30.99
2022-08-07T16:18:49.569Z,34.09
2022-08-07T16:22:01.226Z,34.01
2022-08-07T16:24:35.547Z,34.89
2022-08-07T16:27:18.097Z,36.02
2022-08-07T16:30:30.616Z,35.42
2022-08-07T16:34:02.195Z,38.58
2022-08-07T16:36:30.963Z,39.45
2022-08-07T16:39:49.358Z,37.45
2022-08-07T16:42:52.506Z,40.20
2022-08-07T16:46:33.209Z,39.87
2022-08-07T16:49:10.607Z,39.71
2022-08-07T16:52:11.358Z,45.45
2022-08-07T16:55:08.447Z,45.13
2022-08-07T16:58:02.727Z,46.94
2022-08-07T17:00:41.943Z,50.27
2022-08-07T17:03:17.190Z,52.14
2022-08-07T17:06:28.566Z,51.79
2022-08-07T17:09:09.722Z,54.18
2022-08-07T17:12:04.961Z,55.55
2022-08-07T17:15:03.540Z,56.32
2022-08-07T17:17:46.144Z,56.75
2022-08-07T17:20:37.886Z,58.64
2022-08-07T17:23:14.218Z,60.25
2022-08-07T17:26:23.298Z,61.07
2022-08-07T17:28:58.563Z,59.01
2022-08-07T17:31:43.904Z,58.17
2022-08-07T17:34:33.468Z,56.63
2022-08-07T17:37:14.417Z,56.92
2022-08-07T17:40:07.874Z,56.85
2022-08-07T17:42:58.631Z,55.74
2022-08-07T17:45:34.168Z,54.94
2022-08-07T17:48:11.296Z,54.50
2022-08-07T17:50:55.803Z,53.79
2022-08-07T17:53:59.786Z,54.67
2022-08-07T17:56:49.407Z,53.55
2022-08-07T17:59:21.305Z,54.55
2022-08-07T18:02:12.881Z,54.24
2022-08-07T18:04:48.924Z,53.83
2022-08-07T18:07:34.102Z,54.38
2022-08-07T18:10:32.624Z,53.36
2022-08-07T18:13:01.278Z,53.22
2022-08-07T18:15:32.591Z,53.71
2022-08-07T18:18:47.598Z,54.40
2022-08-07T18:21:42.064Z,53.73
2022-08-07T18:24:33.005Z,53.74
2022-08-07T18:27:07.764Z,53.49
2022-08-07T18:30:32.371Z,54.04
2022-08-07T18:33:39.075Z,54.31
2022-08-07T18:36:58.196Z,54.59
2022-08-07T18:40:06.916Z,54.78
2022-08-07T18:43:15.118Z,57.10
2022-08-07T18:46:24.580Z,57.59
2022-08-07T18:50:32.340Z,59.14
2022-08-07T18:52:37.823Z,59.23
2022-08-07T18:55:43.118Z,62.45
2022-08-07T18:58:34.117Z,66.42
2022-08-07T19:01:05.868Z,65.38
2022-08-07T19:03:49.755Z,66.66
2022-08-07T19:06:33.947Z,67.48
2022-08-07T19:09:57.897Z,69.41
2022-08-07T19:12:53.491Z,71.32
2022-08-07T19:16:05.878Z,70.60
2022-08-07T19:18:35.513Z,66.75
2022-08-07T19:21:47.707Z,64.58
2022-08-07T19:24:43.587Z,64.73
2022-08-07T19:28:29.951Z,66.94
2022-08-07T19:31:05.679Z,70.30
2022-08-07T19:32:59.671Z,70.71
2022-08-07T19:35:33.445Z,71.54
2022-08-07T19:38:04.095Z,72.80
2022-08-07T19:40:49.295Z,74.23
2022-08-07T19:43:43.956Z,75.27
2022-08-07T19:46:19.584Z,75.49
2022-08-07T19:48:53.800Z,76.65
2022-08-07T19:51:51.188Z,77.27
2022-08-07T19:54:34.344Z,80.63
2022-08-07T19:58:02.925Z,80.39
2022-08-07T20:00:02.293Z,81.57
2022-08-07T20:02:53.447Z,83.43
2022-08-07T20:05:28.123Z,82.89
2022-08-07T20:08:04.766Z,82.82
2022-08-07T20:10:52.329Z,81.31
2022-08-07T20:13:31.852Z,82.36
2022-08-07T20:16:01.502Z,82.51
2022-08-07T20:18:32.927Z,82.34
2022-08-07T20:21:21.144Z,82.38
2022-08-07T20:24:03.813Z,83.20
2022-08-07T20:26:44.748Z,84.25
2022-08-07T20:29:17.032Z,84.27
2022-08-07T20:32:03.939Z,85.28
2022-08-07T20:34:50.336Z,85.62
2022-08-07T20:37:23.706Z,86.58
2022-08-07T20:40:03.884Z,87.29
2022-08-07T20:42:36.550Z,86.44
2022-08-07T20:45:32.592Z,85.78
2022-08-07T20:47:57.955Z,85.76
2022-08-07T20:50:28.098Z,85.65
2022-08-07T20:52:55.759Z,87.37
2022-08-07T20:55:24.471Z,87.30
2022-08-07T20:58:02.742Z,87.75
2022-08-07T21:00:44.395Z,87.52
2022-08-07T21:03:14.614Z,87.60
2022-08-07T21:05:55.904Z,87.65
2022-08-07T21:08:38.056Z,88.65
2022-08-07T21:11:12.368Z,89.29
2022-08-07T21:14:32.101Z,88.79
2022-08-07T21:18:03.234Z,88.60
2022-08-07T21:20:00.631Z,89.39
2022-08-07T21:22:54.500Z,88.60
2022-08-07T21:25:42.632Z,89.28
2022-08-07T21:28:47.528Z,87.99
2022-08-07T21:31:31.289Z,88.32
2022-08-07T21:34:21.808Z,88.03
2022-08-07T21:37:09.117Z,88.77
2022-08-07T21:40:01.224Z,89.12
2022-08-07T21:42:55.078Z,90.42
2022-08-07T21:46:08.017Z,89.95
2022-08-07T21:49:00.850Z,89.71
2022-08-07T21:51:28.549Z,90.02
2022-08-07T21:54:22.056Z,90.45
2022-08-07T21:57:10.960Z,89.91
2022-08-07T22:00:06.130Z,90.88
2022-08-07T22:02:49.962Z,91.36
2022-08-07T22:05:45.389Z,90.91
2022-08-07T22:08:11.535Z,90.69
2022-08-07T22:10:42.365Z,90.42
2022-08-07T22:13:13.805Z,91.08
2022-08-07T22:16:43.091Z,91.59
2022-08-07T22:19:23.598Z,89.80
2022-08-07T22:22:28.509Z,90.22
2022-08-07T22:25:07.631Z,91.01
2022-08-07T22:28:29.849Z,91.94
2022-08-07T22:30:52.982Z,90.85
2022-08-07T22:33:50.978Z,91.19
2022-08-07T22:36:18.181Z,90.63
2022-08-07T22:38:52.084Z,90.45
2022-08-07T22:42:03.045Z,91.37
2022-08-07T22:44:23.498Z,91.45
2022-08-07T22:47:09.399Z,91.01
2022-08-07T22:50:04.548Z,91.33
2022-08-07T22:52:50.870Z,91.97
2022-08-07T22:55:43.933Z,91.08
2022-08-07T22:58:18.254Z,91.48
2022-08-07T23:01:05.397Z,91.93
2022-08-07T23:03:58.219Z,92.68
2022-08-07T23:07:33.600Z,92.80
2022-08-07T23:10:37.261Z,92.84
2022-08-07T23:13:48.371Z,92.83
2022-08-07T23:16:55.069Z,93.01
2022-08-07T23:19:51.368Z,92.31
2022-08-07T23:22:39.189Z,92.41
2022-08-07T23:25:13.691Z,93.64
2022-08-07T23:28:21.467Z,92.68
2022-08-07T23:31:11.616Z,92.28
2022-08-07T23:34:36.602Z,91.97
2022-08-07T23:36:43.072Z,92.62
2022-08-07T23:39:48.301Z,92.43
2022-08-07T23:43:02.359Z,93.29
2022-08-07T23:46:03.302Z,93.67
2022-08-07T23:48:41.002Z,92.96
2022-08-07T23:52:59.792Z,94.16
2022-08-07T23:54:19.631Z,94.01
2022-08-07T23:56:59.756Z,94.50
